Latest Weather Observations for Cooma Airport

IDN60801

Issued at 8:05 pm EST Monday 28 July 2014 (issued every 30 minutes, with the page automatically refreshed every 10 minutes)

About weather observations | Map of weather stations | Latest weather observations for NSW | Other Formats
Station Details ID: 070217 Name: COOMA AIRPORT AWS Lat: -36.29 Lon: 148.97 Height: 930.0 m
Data from the previous 72 hours. | See also: Recent months for locations in New South Wales
Date/Time
EST
Temp
°C
App
Temp
°C
Dew
Point
Rel
Hum
%
Delta-T
°C
Wind Press
QNH
hPa
Press
MSL
hPa
Rain
since 9 am
mm
Dir
 
Spd
km/h
Gust
km/h
Spd
kts
Gust
kts
28/08:00pm 6.6 2.5 0.1 63 2.7 NW 11 26 6 14 1017.1 - 0.0
28/07:30pm 6.4 1.6 -0.1 63 2.7 N 15 20 8 11 1017.0 - 0.0
28/07:00pm 7.3 2.1 -0.2 59 3.1 NNW 17 24 9 13 1016.9 - 0.0
28/06:30pm 8.0 1.8 -0.2 56 3.4 NW 22 30 12 16 1016.9 - 0.0
28/06:00pm 8.3 2.1 -0.2 55 3.5 NW 22 37 12 20 1016.7 1018.5 0.0
28/05:30pm 8.1 1.5 -0.1 56 3.4 NW 24 33 13 18 1016.4 - 0.0
28/05:00pm 8.6 3.0 -0.2 54 3.7 NW 19 26 10 14 1016.5 - 0.0
28/04:30pm 9.4 3.3 0.1 52 3.9 NW 22 39 12 21 1016.7 - 0.0
28/04:00pm 9.7 4.0 0.3 52 4.0 NW 20 30 11 16 1016.8 - 0.0
28/03:30pm 10.0 2.8 0.6 52 4.1 NW 28 35 15 19 1016.4 - 0.0
28/03:00pm 10.0 2.7 0.1 50 4.2 WNW 28 41 15 22 1016.3 1018.1 0.0
28/02:30pm 10.7 3.4 0.2 48 4.5 WNW 28 37 15 20 1016.9 - 0.0
28/02:00pm 10.9 4.8 0.6 49 4.5 NW 22 37 12 20 1017.0 - 0.0
28/01:30pm 11.5 5.5 0.9 48 4.7 WNW 22 35 12 19 1017.0 - 0.0
28/01:00pm 11.2 3.3 1.2 50 4.4 WNW 32 43 17 23 1017.2 - 0.0
28/12:30pm 11.1 3.9 0.5 48 4.6 WNW 28 43 15 23 1017.6 - 0.0
28/12:00pm 11.4 4.7 1.4 50 4.4 W 26 35 14 19 1018.3 1020.2 0.0
28/11:30am 11.4 5.4 1.1 49 4.6 W 22 32 12 17 1018.7 - 0.0
28/11:00am 11.1 5.5 -0.1 46 4.8 W 19 30 10 16 1019.2 - 0.0
28/10:30am 10.0 7.1 1.6 56 3.7 ENE 6 9 3 5 1019.4 - 0.0
28/10:00am 8.0 4.1 1.0 61 3.0 NE 11 13 6 7 1019.4 - 0.0
28/09:30am 6.3 2.4 1.0 69 2.2 ENE 11 15 6 8 1019.5 - 0.0
28/09:00am 3.9 0.2 -0.3 74 1.7 NE 9 11 5 6 1019.7 1021.6 0.0
28/08:30am 1.8 -2.0 -0.9 82 1.0 N 9 11 5 6 1019.7 - 0.0
28/08:00am -0.4 -3.5 -2.3 87 0.7 NE 4 9 2 5 1019.9 - 0.0
28/07:30am -2.8 -6.5 -4.7 87 0.5 NE 6 13 3 7 1019.9 - 0.0
28/07:00am -2.4 -6.6 -3.5 92 0.3 N 9 13 5 7 1019.7 - 0.0
28/06:30am -3.3 -7.6 -4.8 89 0.3 N 9 13 5 7 1019.7 - 0.0
28/06:00am -2.7 -6.6 -4.7 86 0.5 NNW 7 11 4 6 1019.6 1021.5 0.0
28/05:30am -2.4 -7.1 -4.7 84 0.7 NNW 11 13 6 7 1019.3 - 0.0
28/05:00am -2.5 -6.9 -5.6 79 0.9 N 9 13 5 7 1018.8 - 0.0
28/04:30am -2.2 -6.1 -4.4 85 0.6 NE 7 11 4 6 1019.2 - 0.0
28/04:00am -1.8 -5.5 -4.6 81 0.9 WNW 6 13 3 7 1019.7 - 0.0
28/03:30am -3.4 -7.4 -5.5 85 0.5 ENE 7 11 4 6 1020.0 - 0.0
28/03:00am -2.5 -6.4 -4.5 86 0.6 WSW 7 13 4 7 1020.0 1021.9 0.0
28/02:30am -1.6 -4.5 -4.1 83 0.8 ESE 2 7 1 4 1020.3 - 0.0
28/02:00am -0.4 -4.5 -3.1 82 0.9 WSW 9 17 5 9 1020.2 - 0.0
28/01:30am 1.7 -1.8 -1.5 79 1.2 NE 7 13 4 7 1019.9 - 0.0
28/01:00am 1.1 -4.7 -1.6 82 1.0 NE 19 24 10 13 1019.2 - 0.0
28/12:30am 1.4 -1.9 -1.0 84 0.9 NNE 6 11 3 6 1019.9 - 0.0
28/12:00am 1.6 -2.7 -1.5 80 1.2 N 11 15 6 8 1020.5 1022.4 0.0
 
Date/Time
EST
Temp
°C
App
Temp
°C
Dew
Point
Rel
Hum
%
Delta-T
°C
Wind Press
QNH
hPa
Press
MSL
hPa
Rain
since 9 am
mm
Dir
 
Spd
km/h
Gust
km/h
Spd
kts
Gust
kts
27/11:30pm 1.4 -0.8 -1.3 82 1.0 CALM 0 0 0 0 1021.1 - 0.0
27/11:00pm 2.9 -0.2 0.1 82 1.1 S 6 11 3 6 1021.2 - 0.0
27/10:30pm 3.0 0.6 -0.1 80 1.2 NNW 2 6 1 3 1021.8 - 0.0
27/10:00pm 3.3 1.3 0.2 80 1.2 CALM 0 0 0 0 1021.6 - 0.0
27/09:30pm 4.0 2.0 0.0 75 1.6 CALM 0 0 0 0 1021.7 - 0.0
27/09:00pm 4.5 1.7 -0.1 72 1.8 NE 4 9 2 5 1021.4 1023.3 0.0
27/08:30pm 5.8 3.8 0.0 66 2.4 CALM 0 6 0 3 1021.5 - 0.0
27/08:00pm 5.8 2.5 0.4 68 2.2 N 7 11 4 6 1020.8 - 0.0
27/07:30pm 6.0 2.4 0.3 67 2.4 NE 9 15 5 8 1020.5 - 0.0
27/07:00pm 6.3 1.9 0.2 65 2.5 NNE 13 17 7 9 1020.8 - 0.0
27/06:30pm 6.6 1.1 0.3 64 2.6 NNW 19 28 10 15 1020.8 - 0.0
27/06:00pm 7.5 2.0 0.7 62 2.9 NW 19 24 10 13 1021.0 1023.0 0.0
27/05:30pm 8.1 3.3 -0.1 56 3.4 NW 15 20 8 11 1020.7 - 0.0
27/05:00pm 9.3 4.9 0.2 53 3.9 NW 13 20 7 11 1020.6 - 0.0
27/04:30pm 10.2 5.8 0.5 51 4.2 W 13 17 7 9 1020.7 - 0.0
27/04:00pm 11.7 7.7 0.2 45 5.0 W 11 19 6 10 1020.8 - 0.0
27/03:30pm 13.5 11.7 1.2 43 5.6 CALM 0 0 0 0 1020.6 - 0.0
27/03:00pm 13.6 10.7 1.3 43 5.6 WNW 6 11 3 6 1020.7 1022.6 0.0
27/02:30pm 13.5 10.4 1.2 43 5.6 WNW 7 15 4 8 1020.6 - 0.0
27/02:00pm 12.8 9.2 0.9 44 5.3 NNW 9 13 5 7 1020.8 - 0.0
27/01:30pm 12.6 9.1 1.3 46 5.1 NNW 9 20 5 11 1021.1 - 0.0
27/01:00pm 12.3 9.2 0.1 43 5.3 WNW 6 13 3 7 1021.6 - 0.0
27/12:30pm 11.9 8.8 1.3 48 4.7 W 7 15 4 8 1022.1 - 0.0
27/12:00pm 10.6 8.1 1.4 53 4.1 W 4 13 2 7 1022.7 1024.6 0.0
27/11:30am 9.7 6.5 0.9 54 3.8 WSW 7 15 4 8 1023.3 - 0.0
27/11:00am 9.7 5.9 1.8 58 3.5 SW 11 17 6 9 1023.8 - 0.0
27/10:30am 9.1 4.5 1.5 59 3.3 SW 15 20 8 11 1024.0 - 0.0
27/10:00am 8.7 3.1 1.4 60 3.2 SW 20 28 11 15 1024.3 - 0.0
27/09:30am 8.4 2.9 1.8 63 2.9 WSW 20 24 11 13 1024.3 - 0.0
27/09:00am 8.0 3.4 1.6 64 2.8 WSW 15 20 8 11 1024.1 1026.1 0.2
27/08:30am 7.1 2.2 1.8 69 2.3 WSW 17 20 9 11 1024.1 - 0.2
27/08:00am 5.7 0.7 1.6 75 1.7 SW 17 20 9 11 1024.0 - 0.2
27/07:30am 4.4 0.3 2.3 86 0.9 SW 13 15 7 8 1023.9 - 0.2
27/07:00am 3.8 0.0 1.7 86 0.9 SSW 11 13 6 7 1023.5 - 0.2
27/06:30am 5.4 1.2 1.9 78 1.5 WSW 13 15 7 8 1023.3 - 0.2
27/06:00am 6.0 1.4 1.7 74 1.8 W 15 20 8 11 1023.2 1025.2 0.2
27/05:30am 5.5 1.8 2.2 79 1.4 W 11 17 6 9 1022.9 - 0.2
27/05:00am 3.7 0.0 2.2 90 0.6 WSW 11 13 6 7 1022.8 - 0.2
27/04:30am 3.5 0.5 1.9 89 0.7 SW 7 7 4 4 1022.7 - 0.2
27/04:00am 3.7 0.1 2.8 94 0.4 SSW 11 13 6 7 1022.6 - 0.2
27/03:30am 2.4 -1.5 1.4 93 0.4 SW 11 11 6 6 1022.7 - 0.2
27/03:00am 1.9 -2.0 1.2 95 0.3 SW 11 13 6 7 1022.8 1024.7 0.2
27/02:30am 1.3 -2.5 -0.5 88 0.7 WSW 9 11 5 6 1022.8 - 0.2
27/02:00am 3.7 -0.1 1.7 87 0.8 SSW 11 15 6 8 1022.9 - 0.2
27/01:30am 1.6 -1.9 1.0 96 0.2 S 9 13 5 7 1023.0 - 0.2
27/01:00am 0.5 -3.4 -1.6 86 0.8 SSW 9 9 5 5 1022.9 - 0.2
27/12:30am 1.1 -1.8 -1.1 85 0.8 S 4 9 2 5 1023.1 - 0.2
27/12:00am 3.5 -0.6 0.0 78 1.4 WSW 11 15 6 8 1023.1 1025.1 0.2
 
Date/Time
EST
Temp
°C
App
Temp
°C
Dew
Point
Rel
Hum
%
Delta-T
°C
Wind Press
QNH
hPa
Press
MSL
hPa
Rain
since 9 am
mm
Dir
 
Spd
km/h
Gust
km/h
Spd
kts
Gust
kts
26/11:30pm 5.8 1.3 2.3 78 1.5 W 15 20 8 11 1023.2 - 0.2
26/11:00pm 3.4 1.2 1.0 84 1.0 WSW 2 6 1 3 1023.5 - 0.2
26/10:30pm 3.5 1.2 0.2 79 1.3 SE 2 7 1 4 1023.4 - 0.2
26/10:00pm 4.7 2.9 1.0 77 1.5 CALM 0 6 0 3 1023.7 - 0.2
26/09:30pm 5.3 1.8 1.4 76 1.6 WNW 9 13 5 7 1023.5 - 0.2
26/09:00pm 5.7 1.5 1.4 74 1.8 WNW 13 15 7 8 1023.3 1025.3 0.2
26/08:30pm 5.7 1.8 1.4 74 1.8 WNW 11 15 6 8 1023.1 - 0.2
26/08:00pm 6.5 1.9 1.6 71 2.1 WNW 15 19 8 10 1023.1 - 0.2
26/07:30pm 6.1 1.1 1.6 73 1.9 WNW 17 20 9 11 1023.0 - 0.2
26/07:00pm 5.2 0.9 0.8 73 1.8 WNW 13 15 7 8 1022.8 - 0.2
26/06:30pm 6.0 1.7 0.8 69 2.2 W 13 19 7 10 1022.7 - 0.2
26/06:00pm 6.6 2.3 0.9 67 2.4 WNW 13 15 7 8 1022.2 1024.2 0.2
26/05:30pm 6.6 2.3 0.9 67 2.4 W 13 17 7 9 1021.9 - 0.2
26/05:00pm 7.7 3.0 1.1 63 2.8 W 15 20 8 11 1021.7 - 0.2
26/04:30pm 9.2 3.2 1.1 57 3.5 W 22 30 12 16 1021.5 - 0.2
26/04:00pm 9.9 3.5 0.8 53 3.9 W 24 33 13 18 1021.0 - 0.2
26/03:30pm 10.9 5.5 1.4 52 4.2 SW 19 30 10 16 1020.8 - 0.2
26/03:00pm 11.1 4.3 0.5 48 4.6 W 26 32 14 17 1020.7 1022.6 0.2
26/02:30pm 11.0 4.4 1.8 53 4.1 WSW 26 39 14 21 1020.6 - 0.2
26/02:00pm 11.1 5.5 3.6 60 3.5 WSW 22 30 12 16 1020.7 - 0.0
26/01:30pm 9.2 4.4 4.4 72 2.2 WSW 19 39 10 21 1021.1 - 0.0
26/01:00pm 9.6 4.5 2.9 63 3.0 SW 19 24 10 13 1021.4 - 0.0
26/12:30pm 9.8 5.7 4.2 68 2.6 SW 15 24 8 13 1021.6 - 0.0
26/12:00pm 9.6 4.9 3.4 65 2.8 SSW 17 24 9 13 1022.1 1024.1 0.0
26/11:30am 9.7 7.2 3.9 67 2.7 WNW 6 26 3 14 1022.6 - 0.0
26/11:00am 8.7 5.7 4.3 74 2.0 NNE 9 11 5 6 1022.7 - 0.0
26/10:30am 7.6 4.6 4.0 78 1.6 ENE 9 11 5 6 1023.1 - 0.0
26/10:00am 6.5 2.7 3.8 83 1.2 NE 13 15 7 8 1023.3 - 0.0
26/09:30am 5.2 1.6 2.7 84 1.1 NE 11 13 6 7 1023.3 - 0.0
26/09:00am 4.4 0.4 2.9 90 0.6 NE 13 17 7 9 1023.2 1025.2 0.2
26/08:30am 1.7 -1.8 1.4 98 0.1 NNE 9 11 5 6 1023.0 - 0.2
26/08:00am 0.0 -3.4 -0.7 95 0.3 N 7 9 4 5 1022.8 - 0.2
26/07:30am -1.5 -5.4 -1.6 99 0.0 NNE 9 9 5 5 1022.6 - 0.2
26/07:00am -1.4 -5.3 -1.5 99 0.0 NNE 9 11 5 6 1022.0 - 0.2
26/06:30am -2.2 -6.6 -2.7 96 0.1 NNE 11 13 6 7 1021.8 - 0.2
26/06:00am -0.4 -3.9 -1.4 93 0.3 N 7 9 4 5 1021.4 1023.3 0.2
26/05:30am 1.3 -2.7 0.4 94 0.4 WNW 11 15 6 8 1021.2 - 0.2
26/05:00am 1.6 -2.6 1.5 99 0.0 E 13 20 7 11 1021.2 - 0.2
26/04:30am -1.3 -4.8 -1.4 99 0.0 NNE 7 9 4 5 1021.5 - 0.2
26/04:00am -2.7 -6.3 -4.0 91 0.3 N 6 9 3 5 1021.7 - 0.2
26/03:30am 0.0 -3.8 -0.7 95 0.3 N 9 11 5 6 1021.7 - 0.2
26/03:00am -0.9 -4.4 -1.7 94 0.2 NNE 7 9 4 5 1021.9 1023.8 0.2
26/02:30am 1.1 -2.0 0.4 95 0.3 NNE 6 7 3 4 1021.9 - 0.2
26/02:00am 1.4 -1.8 -0.7 86 0.8 NE 6 7 3 4 1022.1 - 0.2
26/01:30am 1.6 -2.0 0.3 91 0.5 NNE 9 13 5 7 1021.9 - 0.2
26/01:00am 2.5 -2.1 1.3 92 0.5 NE 15 19 8 10 1021.6 - 0.2
26/12:30am 0.9 -2.7 0.6 98 0.1 N 9 15 5 8 1021.9 - 0.2
26/12:00am 0.3 -2.9 -0.4 95 0.3 NNE 6 11 3 6 1021.9 1023.8 0.2
 
Date/Time
EST
Temp
°C
App
Temp
°C
Dew
Point
Rel
Hum
%
Delta-T
°C
Wind Press
QNH
hPa
Press
MSL
hPa
Rain
since 9 am
mm
Dir
 
Spd
km/h
Gust
km/h
Spd
kts
Gust
kts
25/11:30pm -0.1 -4.4 -1.5 90 0.5 N 11 13 6 7 1022.1 - 0.2
25/11:00pm 0.5 -2.8 -1.1 89 0.6 NE 6 7 3 4 1022.0 - 0.2
25/10:30pm 1.3 -2.2 -1.1 84 0.9 NNE 7 13 4 7 1022.1 - 0.2
25/10:00pm 2.8 -2.0 0.5 85 0.9 NNW 15 19 8 10 1022.1 - 0.2
25/09:30pm -0.2 -3.7 -1.6 90 0.5 N 7 9 4 5 1022.0 - 0.2
25/09:00pm 1.1 -2.3 -1.8 81 1.1 NNW 6 9 3 5 1021.9 1023.8 0.2
25/08:30pm 1.1 -2.7 -0.7 88 0.7 NW 9 13 5 7 1021.7 - 0.2

Other Formats:

Comma delimited format used in spreadsheet applications
http://www.bom.gov.au/fwo/IDN60801/IDN60801.94921.axf

JavaScript Object Notation format (JSON) in row-major order
http://www.bom.gov.au/fwo/IDN60801/IDN60801.94921.json